sensor_id;sensor_type;location;lat;lon;timestamp;temperature;humidity
12977;DHT22;6553;48.412;9.514;2022-09-06T00:00:10;23.40;73.90
12977;DHT22;6553;48.412;9.514;2022-09-06T00:02:41;23.40;73.90
12977;DHT22;6553;48.412;9.514;2022-09-06T00:05:09;23.40;74.00
12977;DHT22;6553;48.412;9.514;2022-09-06T00:07:37;23.40;74.00
12977;DHT22;6553;48.412;9.514;2022-09-06T00:10:03;23.40;74.00
12977;DHT22;6553;48.412;9.514;2022-09-06T00:12:30;23.40;74.00
12977;DHT22;6553;48.412;9.514;2022-09-06T00:14:56;23.40;74.00
12977;DHT22;6553;48.412;9.514;2022-09-06T00:17:22;23.40;74.00
12977;DHT22;6553;48.412;9.514;2022-09-06T00:19:48;23.40;74.00
12977;DHT22;6553;48.412;9.514;2022-09-06T00:22:14;23.40;74.00
12977;DHT22;6553;48.412;9.514;2022-09-06T00:24:40;23.30;73.80
12977;DHT22;6553;48.412;9.514;2022-09-06T00:27:07;23.40;74.00
12977;DHT22;6553;48.412;9.514;2022-09-06T00:29:34;23.40;74.00
12977;DHT22;6553;48.412;9.514;2022-09-06T00:32:00;23.40;74.00
12977;DHT22;6553;48.412;9.514;2022-09-06T00:34:27;23.30;73.80
12977;DHT22;6553;48.412;9.514;2022-09-06T00:36:53;23.40;73.90
12977;DHT22;6553;48.412;9.514;2022-09-06T00:39:19;23.30;73.70
12977;DHT22;6553;48.412;9.514;2022-09-06T00:41:45;23.30;73.60
12977;DHT22;6553;48.412;9.514;2022-09-06T00:44:11;23.40;73.80
12977;DHT22;6553;48.412;9.514;2022-09-06T00:46:38;23.40;73.70
12977;DHT22;6553;48.412;9.514;2022-09-06T00:49:17;23.30;73.60
12977;DHT22;6553;48.412;9.514;2022-09-06T00:51:51;23.30;73.60
12977;DHT22;6553;48.412;9.514;2022-09-06T00:54:19;23.30;73.70
12977;DHT22;6553;48.412;9.514;2022-09-06T00:56:45;23.30;73.60
12977;DHT22;6553;48.412;9.514;2022-09-06T00:59:11;23.30;73.80
12977;DHT22;6553;48.412;9.514;2022-09-06T01:01:38;23.30;73.70
12977;DHT22;6553;48.412;9.514;2022-09-06T01:04:04;23.30;73.70
12977;DHT22;6553;48.412;9.514;2022-09-06T01:15:31;23.30;73.50
12977;DHT22;6553;48.412;9.514;2022-09-06T01:18:25;23.30;73.70
12977;DHT22;6553;48.412;9.514;2022-09-06T01:21:03;23.30;73.70
12977;DHT22;6553;48.412;9.514;2022-09-06T01:26:45;23.30;73.50
12977;DHT22;6553;48.412;9.514;2022-09-06T01:35:19;23.30;73.60
12977;DHT22;6553;48.412;9.514;2022-09-06T01:37:52;23.30;73.50
12977;DHT22;6553;48.412;9.514;2022-09-06T01:40:18;23.30;73.50
12977;DHT22;6553;48.412;9.514;2022-09-06T01:42:45;23.30;74.30
12977;DHT22;6553;48.412;9.514;2022-09-06T01:51:36;23.30;73.50
12977;DHT22;6553;48.412;9.514;2022-09-06T01:57:45;23.20;73.40
12977;DHT22;6553;48.412;9.514;2022-09-06T02:00:19;23.20;73.40
12977;DHT22;6553;48.412;9.514;2022-09-06T02:03:02;23.20;73.40
12977;DHT22;6553;48.412;9.514;2022-09-06T02:05:51;23.20;73.40
12977;DHT22;6553;48.412;9.514;2022-09-06T02:08:30;23.20;73.40
12977;DHT22;6553;48.412;9.514;2022-09-06T02:11:02;23.20;73.40
12977;DHT22;6553;48.412;9.514;2022-09-06T02:13:43;23.20;73.30
12977;DHT22;6553;48.412;9.514;2022-09-06T02:16:24;23.20;73.30
12977;DHT22;6553;48.412;9.514;2022-09-06T02:18:56;23.20;73.40
12977;DHT22;6553;48.412;9.514;2022-09-06T02:21:34;23.20;73.40
12977;DHT22;6553;48.412;9.514;2022-09-06T02:24:06;23.20;73.40
12977;DHT22;6553;48.412;9.514;2022-09-06T02:26:39;23.20;73.40
12977;DHT22;6553;48.412;9.514;2022-09-06T02:29:08;23.20;73.30
12977;DHT22;6553;48.412;9.514;2022-09-06T02:31:38;23.20;73.20
12977;DHT22;6553;48.412;9.514;2022-09-06T02:34:12;23.20;73.20
12977;DHT22;6553;48.412;9.514;2022-09-06T02:36:40;23.20;73.20
12977;DHT22;6553;48.412;9.514;2022-09-06T02:39:06;23.20;73.10
12977;DHT22;6553;48.412;9.514;2022-09-06T02:41:32;23.20;73.20
12977;DHT22;6553;48.412;9.514;2022-09-06T02:43:59;23.20;73.20
12977;DHT22;6553;48.412;9.514;2022-09-06T02:46:25;23.20;73.40
12977;DHT22;6553;48.412;9.514;2022-09-06T02:48:50;23.20;73.30
12977;DHT22;6553;48.412;9.514;2022-09-06T02:51:17;23.20;73.30
12977;DHT22;6553;48.412;9.514;2022-09-06T02:53:42;23.20;73.20
12977;DHT22;6553;48.412;9.514;2022-09-06T02:56:08;23.20;73.30
12977;DHT22;6553;48.412;9.514;2022-09-06T02:58:34;23.20;73.20
12977;DHT22;6553;48.412;9.514;2022-09-06T03:01:00;23.20;73.20
12977;DHT22;6553;48.412;9.514;2022-09-06T03:03:26;23.20;73.30
12977;DHT22;6553;48.412;9.514;2022-09-06T03:05:53;23.20;73.20
12977;DHT22;6553;48.412;9.514;2022-09-06T03:08:21;23.20;73.20
12977;DHT22;6553;48.412;9.514;2022-09-06T03:10:54;23.10;73.10
12977;DHT22;6553;48.412;9.514;2022-09-06T03:13:24;23.20;73.20
12977;DHT22;6553;48.412;9.514;2022-09-06T03:15:51;23.10;73.10
12977;DHT22;6553;48.412;9.514;2022-09-06T03:18:23;23.10;73.00
12977;DHT22;6553;48.412;9.514;2022-09-06T03:20:50;23.20;73.10
12977;DHT22;6553;48.412;9.514;2022-09-06T03:23:18;23.10;73.00
12977;DHT22;6553;48.412;9.514;2022-09-06T03:25:45;23.10;73.10
12977;DHT22;6553;48.412;9.514;2022-09-06T03:28:12;23.10;73.00
12977;DHT22;6553;48.412;9.514;2022-09-06T03:30:39;23.10;73.10
12977;DHT22;6553;48.412;9.514;2022-09-06T03:33:05;23.10;73.20
12977;DHT22;6553;48.412;9.514;2022-09-06T03:35:31;23.10;74.00
12977;DHT22;6553;48.412;9.514;2022-09-06T03:37:56;23.10;73.90
12977;DHT22;6553;48.412;9.514;2022-09-06T03:40:22;23.10;73.30
12977;DHT22;6553;48.412;9.514;2022-09-06T03:42:48;23.10;73.30
12977;DHT22;6553;48.412;9.514;2022-09-06T03:45:14;23.10;73.10
12977;DHT22;6553;48.412;9.514;2022-09-06T03:47:40;23.10;73.20
12977;DHT22;6553;48.412;9.514;2022-09-06T03:50:06;23.10;73.10
12977;DHT22;6553;48.412;9.514;2022-09-06T03:52:32;23.10;73.10
12977;DHT22;6553;48.412;9.514;2022-09-06T03:54:58;23.20;73.30
12977;DHT22;6553;48.412;9.514;2022-09-06T03:57:24;23.10;73.30
12977;DHT22;6553;48.412;9.514;2022-09-06T03:59:50;23.10;73.20
12977;DHT22;6553;48.412;9.514;2022-09-06T04:02:16;23.10;73.20
12977;DHT22;6553;48.412;9.514;2022-09-06T04:04:41;23.10;73.20
12977;DHT22;6553;48.412;9.514;2022-09-06T04:07:07;23.10;73.20
12977;DHT22;6553;48.412;9.514;2022-09-06T04:09:33;23.10;73.20
12977;DHT22;6553;48.412;9.514;2022-09-06T04:11:59;23.10;73.20
12977;DHT22;6553;48.412;9.514;2022-09-06T04:14:25;23.10;73.20
12977;DHT22;6553;48.412;9.514;2022-09-06T04:16:50;23.10;73.20
12977;DHT22;6553;48.412;9.514;2022-09-06T04:19:16;23.10;73.20
12977;DHT22;6553;48.412;9.514;2022-09-06T04:21:42;23.10;73.20
12977;DHT22;6553;48.412;9.514;2022-09-06T04:24:08;23.10;73.20
12977;DHT22;6553;48.412;9.514;2022-09-06T04:26:34;23.10;73.20
12977;DHT22;6553;48.412;9.514;2022-09-06T04:29:00;23.10;73.10
12977;DHT22;6553;48.412;9.514;2022-09-06T04:31:25;23.20;73.30
12977;DHT22;6553;48.412;9.514;2022-09-06T04:33:52;23.10;73.20
12977;DHT22;6553;48.412;9.514;2022-09-06T04:36:17;23.10;73.20
12977;DHT22;6553;48.412;9.514;2022-09-06T04:38:44;23.10;73.10
12977;DHT22;6553;48.412;9.514;2022-09-06T04:41:11;23.10;73.20
12977;DHT22;6553;48.412;9.514;2022-09-06T04:43:40;23.20;73.30
12977;DHT22;6553;48.412;9.514;2022-09-06T04:46:24;23.20;73.20
12977;DHT22;6553;48.412;9.514;2022-09-06T04:48:53;23.10;73.10
12977;DHT22;6553;48.412;9.514;2022-09-06T04:51:20;23.10;73.10
12977;DHT22;6553;48.412;9.514;2022-09-06T04:53:47;23.10;73.10
12977;DHT22;6553;48.412;9.514;2022-09-06T04:56:15;23.10;73.10
12977;DHT22;6553;48.412;9.514;2022-09-06T04:58:43;23.20;73.20
12977;DHT22;6553;48.412;9.514;2022-09-06T05:01:10;23.10;73.10
12977;DHT22;6553;48.412;9.514;2022-09-06T05:03:37;23.10;73.00
12977;DHT22;6553;48.412;9.514;2022-09-06T05:06:08;23.10;73.10
12977;DHT22;6553;48.412;9.514;2022-09-06T05:08:39;23.10;73.00
12977;DHT22;6553;48.412;9.514;2022-09-06T05:11:07;23.10;73.10
12977;DHT22;6553;48.412;9.514;2022-09-06T05:13:34;23.10;73.10
12977;DHT22;6553;48.412;9.514;2022-09-06T05:16:04;23.10;73.10
12977;DHT22;6553;48.412;9.514;2022-09-06T05:18:32;23.10;73.10
12977;DHT22;6553;48.412;9.514;2022-09-06T05:20:58;23.10;73.10
12977;DHT22;6553;48.412;9.514;2022-09-06T05:23:25;23.10;73.10
12977;DHT22;6553;48.412;9.514;2022-09-06T05:25:51;23.10;73.10
12977;DHT22;6553;48.412;9.514;2022-09-06T05:28:18;23.10;73.10
12977;DHT22;6553;48.412;9.514;2022-09-06T05:30:44;23.10;73.10
12977;DHT22;6553;48.412;9.514;2022-09-06T05:33:12;23.10;73.20
12977;DHT22;6553;48.412;9.514;2022-09-06T05:35:43;23.10;73.20
12977;DHT22;6553;48.412;9.514;2022-09-06T05:38:09;23.10;73.20
12977;DHT22;6553;48.412;9.514;2022-09-06T05:40:34;23.10;73.20
12977;DHT22;6553;48.412;9.514;2022-09-06T05:43:00;23.10;73.20
12977;DHT22;6553;48.412;9.514;2022-09-06T05:45:26;23.10;73.30
12977;DHT22;6553;48.412;9.514;2022-09-06T05:47:52;23.10;73.30
12977;DHT22;6553;48.412;9.514;2022-09-06T05:50:18;23.10;73.60
12977;DHT22;6553;48.412;9.514;2022-09-06T05:52:44;23.10;73.60
12977;DHT22;6553;48.412;9.514;2022-09-06T05:55:10;23.10;73.60
12977;DHT22;6553;48.412;9.514;2022-09-06T05:57:36;23.10;73.70
12977;DHT22;6553;48.412;9.514;2022-09-06T06:00:03;23.10;73.80
12977;DHT22;6553;48.412;9.514;2022-09-06T06:02:36;23.10;73.80
12977;DHT22;6553;48.412;9.514;2022-09-06T06:05:02;23.10;73.90
12977;DHT22;6553;48.412;9.514;2022-09-06T06:07:28;23.10;74.00
12977;DHT22;6553;48.412;9.514;2022-09-06T06:09:54;23.10;73.90
12977;DHT22;6553;48.412;9.514;2022-09-06T06:12:20;23.10;74.00
12977;DHT22;6553;48.412;9.514;2022-09-06T06:14:46;23.10;74.00
12977;DHT22;6553;48.412;9.514;2022-09-06T06:17:11;23.10;74.00
12977;DHT22;6553;48.412;9.514;2022-09-06T06:19:37;23.10;74.10
12977;DHT22;6553;48.412;9.514;2022-09-06T06:22:04;23.10;74.00
12977;DHT22;6553;48.412;9.514;2022-09-06T06:24:30;23.00;74.00
12977;DHT22;6553;48.412;9.514;2022-09-06T06:26:56;22.90;74.00
12977;DHT22;6553;48.412;9.514;2022-09-06T06:29:21;22.90;74.10
12977;DHT22;6553;48.412;9.514;2022-09-06T06:31:49;22.90;74.20
12977;DHT22;6553;48.412;9.514;2022-09-06T06:34:15;22.90;74.20
12977;DHT22;6553;48.412;9.514;2022-09-06T06:36:45;22.80;74.30
12977;DHT22;6553;48.412;9.514;2022-09-06T06:39:10;22.80;74.50
12977;DHT22;6553;48.412;9.514;2022-09-06T06:41:36;22.80;74.60
12977;DHT22;6553;48.412;9.514;2022-09-06T06:44:20;22.80;74.80
12977;DHT22;6553;48.412;9.514;2022-09-06T06:46:45;22.80;75.00
12977;DHT22;6553;48.412;9.514;2022-09-06T06:49:11;22.90;75.30
12977;DHT22;6553;48.412;9.514;2022-09-06T06:51:37;22.80;75.40
12977;DHT22;6553;48.412;9.514;2022-09-06T06:54:04;22.80;75.60
12977;DHT22;6553;48.412;9.514;2022-09-06T06:56:32;22.80;75.80
12977;DHT22;6553;48.412;9.514;2022-09-06T06:59:01;22.80;76.00
12977;DHT22;6553;48.412;9.514;2022-09-06T07:01:30;22.80;76.30
12977;DHT22;6553;48.412;9.514;2022-09-06T07:03:58;22.80;75.90
12977;DHT22;6553;48.412;9.514;2022-09-06T07:06:24;22.80;76.50
12977;DHT22;6553;48.412;9.514;2022-09-06T07:08:52;22.90;77.00
12977;DHT22;6553;48.412;9.514;2022-09-06T07:11:18;22.90;77.10
12977;DHT22;6553;48.412;9.514;2022-09-06T07:13:44;22.90;77.10
12977;DHT22;6553;48.412;9.514;2022-09-06T07:16:21;22.90;77.10
12977;DHT22;6553;48.412;9.514;2022-09-06T07:18:55;22.90;76.90
12977;DHT22;6553;48.412;9.514;2022-09-06T07:21:22;22.90;77.30
12977;DHT22;6553;48.412;9.514;2022-09-06T07:23:55;22.90;78.40
12977;DHT22;6553;48.412;9.514;2022-09-06T07:26:26;22.90;77.90
12977;DHT22;6553;48.412;9.514;2022-09-06T07:29:01;22.90;77.30
12977;DHT22;6553;48.412;9.514;2022-09-06T07:31:29;23.00;77.90
12977;DHT22;6553;48.412;9.514;2022-09-06T07:33:56;23.00;77.10
12977;DHT22;6553;48.412;9.514;2022-09-06T07:36:22;23.10;77.20
12977;DHT22;6553;48.412;9.514;2022-09-06T07:38:49;23.10;77.20
12977;DHT22;6553;48.412;9.514;2022-09-06T07:41:16;23.20;77.30
12977;DHT22;6553;48.412;9.514;2022-09-06T07:43:43;23.20;77.20
12977;DHT22;6553;48.412;9.514;2022-09-06T07:46:14;23.20;77.20
12977;DHT22;6553;48.412;9.514;2022-09-06T07:48:43;23.20;77.10
12977;DHT22;6553;48.412;9.514;2022-09-06T07:51:20;23.20;77.20
12977;DHT22;6553;48.412;9.514;2022-09-06T07:53:51;23.20;77.10
12977;DHT22;6553;48.412;9.514;2022-09-06T07:56:21;23.20;77.10
12977;DHT22;6553;48.412;9.514;2022-09-06T07:58:48;23.30;77.00
12977;DHT22;6553;48.412;9.514;2022-09-06T08:03:52;23.30;76.50
12977;DHT22;6553;48.412;9.514;2022-09-06T08:06:20;23.40;76.60
12977;DHT22;6553;48.412;9.514;2022-09-06T08:08:47;23.40;76.60
12977;DHT22;6553;48.412;9.514;2022-09-06T08:11:13;23.40;76.30
12977;DHT22;6553;48.412;9.514;2022-09-06T08:13:39;23.40;76.20
12977;DHT22;6553;48.412;9.514;2022-09-06T08:16:08;23.40;76.20
12977;DHT22;6553;48.412;9.514;2022-09-06T08:18:36;23.40;76.10
12977;DHT22;6553;48.412;9.514;2022-09-06T08:21:10;23.50;76.10
12977;DHT22;6553;48.412;9.514;2022-09-06T08:23:39;23.50;76.00
12977;DHT22;6553;48.412;9.514;2022-09-06T08:26:09;23.50;76.00
12977;DHT22;6553;48.412;9.514;2022-09-06T08:28:35;23.50;76.00
12977;DHT22;6553;48.412;9.514;2022-09-06T08:31:09;23.40;75.90
12977;DHT22;6553;48.412;9.514;2022-09-06T08:33:40;23.50;76.00
12977;DHT22;6553;48.412;9.514;2022-09-06T08:36:07;23.50;76.00
12977;DHT22;6553;48.412;9.514;2022-09-06T08:38:35;23.50;76.00
12977;DHT22;6553;48.412;9.514;2022-09-06T08:41:11;23.50;75.90
12977;DHT22;6553;48.412;9.514;2022-09-06T08:44:01;23.50;76.00
12977;DHT22;6553;48.412;9.514;2022-09-06T08:46:49;23.50;76.00
12977;DHT22;6553;48.412;9.514;2022-09-06T08:49:19;23.50;76.00
12977;DHT22;6553;48.412;9.514;2022-09-06T08:57:39;23.50;76.10
12977;DHT22;6553;48.412;9.514;2022-09-06T08:59:49;23.50;76.30
12977;DHT22;6553;48.412;9.514;2022-09-06T09:02:21;23.50;76.10
12977;DHT22;6553;48.412;9.514;2022-09-06T09:04:58;23.50;76.00
12977;DHT22;6553;48.412;9.514;2022-09-06T09:08:04;23.50;76.00
12977;DHT22;6553;48.412;9.514;2022-09-06T09:10:48;23.60;76.10
12977;DHT22;6553;48.412;9.514;2022-09-06T09:14:11;23.60;76.80
12977;DHT22;6553;48.412;9.514;2022-09-06T09:16:20;23.60;76.10
12977;DHT22;6553;48.412;9.514;2022-09-06T09:19:04;23.60;76.10
12977;DHT22;6553;48.412;9.514;2022-09-06T09:21:33;23.60;76.20
12977;DHT22;6553;48.412;9.514;2022-09-06T09:24:04;23.60;76.30
12977;DHT22;6553;48.412;9.514;2022-09-06T09:26:45;23.60;76.10
12977;DHT22;6553;48.412;9.514;2022-09-06T09:29:13;23.60;76.20
12977;DHT22;6553;48.412;9.514;2022-09-06T09:31:44;23.60;76.30
12977;DHT22;6553;48.412;9.514;2022-09-06T09:34:35;23.60;76.20
12977;DHT22;6553;48.412;9.514;2022-09-06T09:37:22;23.60;76.00
12977;DHT22;6553;48.412;9.514;2022-09-06T09:39:52;23.60;76.20
12977;DHT22;6553;48.412;9.514;2022-09-06T09:42:30;23.60;76.30
12977;DHT22;6553;48.412;9.514;2022-09-06T09:45:01;23.60;76.10
12977;DHT22;6553;48.412;9.514;2022-09-06T09:47:32;23.60;76.60
12977;DHT22;6553;48.412;9.514;2022-09-06T09:49:58;23.60;76.80
12977;DHT22;6553;48.412;9.514;2022-09-06T09:52:29;23.60;76.80
12977;DHT22;6553;48.412;9.514;2022-09-06T09:55:03;23.60;76.80
12977;DHT22;6553;48.412;9.514;2022-09-06T09:57:41;23.60;77.10
12977;DHT22;6553;48.412;9.514;2022-09-06T10:00:10;23.60;77.30
12977;DHT22;6553;48.412;9.514;2022-09-06T10:02:39;23.60;77.60
12977;DHT22;6553;48.412;9.514;2022-09-06T10:07:55;23.70;79.00
12977;DHT22;6553;48.412;9.514;2022-09-06T10:10:26;23.60;79.00
12977;DHT22;6553;48.412;9.514;2022-09-06T10:15:45;23.70;81.10
12977;DHT22;6553;48.412;9.514;2022-09-06T10:20:58;23.80;82.70
12977;DHT22;6553;48.412;9.514;2022-09-06T10:24:04;23.80;82.90
12977;DHT22;6553;48.412;9.514;2022-09-06T10:26:49;23.80;83.10
12977;DHT22;6553;48.412;9.514;2022-09-06T10:32:40;23.80;83.50
12977;DHT22;6553;48.412;9.514;2022-09-06T10:35:13;23.80;83.30
12977;DHT22;6553;48.412;9.514;2022-09-06T10:38:15;23.80;83.40
12977;DHT22;6553;48.412;9.514;2022-09-06T10:46:35;23.80;83.70
12977;DHT22;6553;48.412;9.514;2022-09-06T10:49:02;23.80;83.70
12977;DHT22;6553;48.412;9.514;2022-09-06T10:51:31;23.80;84.10
12977;DHT22;6553;48.412;9.514;2022-09-06T10:54:11;23.80;84.10
12977;DHT22;6553;48.412;9.514;2022-09-06T10:59:34;23.80;84.50
12977;DHT22;6553;48.412;9.514;2022-09-06T11:05:10;23.80;84.40
12977;DHT22;6553;48.412;9.514;2022-09-06T11:07:42;23.80;84.20
12977;DHT22;6553;48.412;9.514;2022-09-06T11:13:02;23.80;84.10
12977;DHT22;6553;48.412;9.514;2022-09-06T11:15:58;23.80;84.00
12977;DHT22;6553;48.412;9.514;2022-09-06T11:27:39;23.80;83.50
12977;DHT22;6553;48.412;9.514;2022-09-06T11:30:13;23.80;83.70
12977;DHT22;6553;48.412;9.514;2022-09-06T11:32:43;23.80;83.20
12977;DHT22;6553;48.412;9.514;2022-09-06T11:35:30;23.80;83.10
12977;DHT22;6553;48.412;9.514;2022-09-06T11:38:00;23.80;82.90
12977;DHT22;6553;48.412;9.514;2022-09-06T11:40:39;23.80;82.90
12977;DHT22;6553;48.412;9.514;2022-09-06T11:43:20;23.80;82.60
12977;DHT22;6553;48.412;9.514;2022-09-06T11:49:30;23.80;82.90
12977;DHT22;6553;48.412;9.514;2022-09-06T11:51:57;23.80;82.50
12977;DHT22;6553;48.412;9.514;2022-09-06T11:54:45;23.80;82.30
12977;DHT22;6553;48.412;9.514;2022-09-06T11:57:13;23.80;82.40
12977;DHT22;6553;48.412;9.514;2022-09-06T11:59:53;23.80;82.30
12977;DHT22;6553;48.412;9.514;2022-09-06T12:02:37;23.80;82.10
12977;DHT22;6553;48.412;9.514;2022-09-06T12:07:35;23.80;82.40
12977;DHT22;6553;48.412;9.514;2022-09-06T12:12:55;23.80;81.70
12977;DHT22;6553;48.412;9.514;2022-09-06T12:15:44;23.80;81.60
12977;DHT22;6553;48.412;9.514;2022-09-06T12:24:03;23.80;81.60
12977;DHT22;6553;48.412;9.514;2022-09-06T12:26:51;23.80;81.30
12977;DHT22;6553;48.412;9.514;2022-09-06T12:29:32;23.80;81.40
12977;DHT22;6553;48.412;9.514;2022-09-06T12:31:59;23.80;81.00
12977;DHT22;6553;48.412;9.514;2022-09-06T12:34:30;23.80;81.10
12977;DHT22;6553;48.412;9.514;2022-09-06T12:37:06;23.80;81.10
12977;DHT22;6553;48.412;9.514;2022-09-06T12:39:33;23.80;81.00
12977;DHT22;6553;48.412;9.514;2022-09-06T12:42:02;23.80;81.20
12977;DHT22;6553;48.412;9.514;2022-09-06T12:44:37;23.80;81.30
12977;DHT22;6553;48.412;9.514;2022-09-06T12:47:35;23.90;81.40
12977;DHT22;6553;48.412;9.514;2022-09-06T12:50:21;23.80;81.00
12977;DHT22;6553;48.412;9.514;2022-09-06T12:52:57;23.90;81.10
12977;DHT22;6553;48.412;9.514;2022-09-06T13:00:35;23.90;80.60
12977;DHT22;6553;48.412;9.514;2022-09-06T13:03:26;23.90;80.60
12977;DHT22;6553;48.412;9.514;2022-09-06T13:05:57;23.90;80.70
12977;DHT22;6553;48.412;9.514;2022-09-06T13:11:13;23.90;80.60
12977;DHT22;6553;48.412;9.514;2022-09-06T13:13:49;23.90;80.30
12977;DHT22;6553;48.412;9.514;2022-09-06T13:16:26;23.90;80.20
12977;DHT22;6553;48.412;9.514;2022-09-06T13:19:31;23.90;80.10
12977;DHT22;6553;48.412;9.514;2022-09-06T13:22:01;23.90;80.90
12977;DHT22;6553;48.412;9.514;2022-09-06T13:26:58;23.90;80.40
12977;DHT22;6553;48.412;9.514;2022-09-06T13:29:30;23.90;80.00
12977;DHT22;6553;48.412;9.514;2022-09-06T13:32:00;23.90;79.90
12977;DHT22;6553;48.412;9.514;2022-09-06T13:34:31;23.90;79.90
12977;DHT22;6553;48.412;9.514;2022-09-06T13:37:04;23.90;79.70
12977;DHT22;6553;48.412;9.514;2022-09-06T13:39:35;23.90;79.80
12977;DHT22;6553;48.412;9.514;2022-09-06T13:42:30;23.90;79.80
12977;DHT22;6553;48.412;9.514;2022-09-06T13:45:13;23.90;79.70
12977;DHT22;6553;48.412;9.514;2022-09-06T13:47:44;23.90;79.70
12977;DHT22;6553;48.412;9.514;2022-09-06T13:50:10;23.90;79.90
12977;DHT22;6553;48.412;9.514;2022-09-06T13:52:35;23.90;80.10
12977;DHT22;6553;48.412;9.514;2022-09-06T13:55:01;23.90;79.90
12977;DHT22;6553;48.412;9.514;2022-09-06T13:57:27;23.90;79.90
12977;DHT22;6553;48.412;9.514;2022-09-06T13:59:52;23.90;79.70
12977;DHT22;6553;48.412;9.514;2022-09-06T14:02:18;24.00;79.70
12977;DHT22;6553;48.412;9.514;2022-09-06T14:04:45;23.90;79.80
12977;DHT22;6553;48.412;9.514;2022-09-06T14:07:11;24.00;79.80
12977;DHT22;6553;48.412;9.514;2022-09-06T14:09:37;23.90;79.60
12977;DHT22;6553;48.412;9.514;2022-09-06T14:12:03;23.90;79.70
12977;DHT22;6553;48.412;9.514;2022-09-06T14:14:31;23.90;79.60
12977;DHT22;6553;48.412;9.514;2022-09-06T14:16:58;23.90;79.50
12977;DHT22;6553;48.412;9.514;2022-09-06T14:19:23;23.90;79.40
12977;DHT22;6553;48.412;9.514;2022-09-06T14:21:50;23.90;79.50
12977;DHT22;6553;48.412;9.514;2022-09-06T14:24:16;23.90;79.50
12977;DHT22;6553;48.412;9.514;2022-09-06T14:26:42;23.90;79.70
12977;DHT22;6553;48.412;9.514;2022-09-06T14:29:08;23.90;79.60
12977;DHT22;6553;48.412;9.514;2022-09-06T14:31:34;23.90;79.50
12977;DHT22;6553;48.412;9.514;2022-09-06T14:34:02;23.90;79.60
12977;DHT22;6553;48.412;9.514;2022-09-06T14:36:29;23.90;79.70
12977;DHT22;6553;48.412;9.514;2022-09-06T14:38:57;23.90;79.70
12977;DHT22;6553;48.412;9.514;2022-09-06T14:41:24;24.00;80.00
12977;DHT22;6553;48.412;9.514;2022-09-06T14:43:52;24.00;79.80
12977;DHT22;6553;48.412;9.514;2022-09-06T14:46:22;24.00;80.10
12977;DHT22;6553;48.412;9.514;2022-09-06T14:48:55;23.90;80.00
12977;DHT22;6553;48.412;9.514;2022-09-06T14:51:26;23.90;80.00
12977;DHT22;6553;48.412;9.514;2022-09-06T14:53:56;24.00;80.10
12977;DHT22;6553;48.412;9.514;2022-09-06T14:56:24;23.90;80.10
12977;DHT22;6553;48.412;9.514;2022-09-06T14:58:50;24.00;80.20
12977;DHT22;6553;48.412;9.514;2022-09-06T15:01:21;23.90;80.10
12977;DHT22;6553;48.412;9.514;2022-09-06T15:03:50;23.90;80.10
12977;DHT22;6553;48.412;9.514;2022-09-06T15:06:21;23.90;80.00
12977;DHT22;6553;48.412;9.514;2022-09-06T15:08:49;23.90;80.00
12977;DHT22;6553;48.412;9.514;2022-09-06T15:14:03;23.90;80.10
12977;DHT22;6553;48.412;9.514;2022-09-06T15:16:40;23.90;80.60
12977;DHT22;6553;48.412;9.514;2022-09-06T15:19:06;23.90;80.90
12977;DHT22;6553;48.412;9.514;2022-09-06T15:21:33;23.90;81.20
12977;DHT22;6553;48.412;9.514;2022-09-06T15:23:59;23.90;80.50
12977;DHT22;6553;48.412;9.514;2022-09-06T15:26:26;23.90;80.70
12977;DHT22;6553;48.412;9.514;2022-09-06T15:28:53;23.90;80.90
12977;DHT22;6553;48.412;9.514;2022-09-06T15:31:18;23.90;81.10
12977;DHT22;6553;48.412;9.514;2022-09-06T15:33:45;23.90;81.20
12977;DHT22;6553;48.412;9.514;2022-09-06T15:36:13;23.90;81.50
12977;DHT22;6553;48.412;9.514;2022-09-06T15:38:48;23.90;81.90
12977;DHT22;6553;48.412;9.514;2022-09-06T15:41:23;23.90;81.90
12977;DHT22;6553;48.412;9.514;2022-09-06T15:43:53;23.90;82.00
12977;DHT22;6553;48.412;9.514;2022-09-06T15:46:49;23.90;82.20
12977;DHT22;6553;48.412;9.514;2022-09-06T15:49:36;23.80;82.30
12977;DHT22;6553;48.412;9.514;2022-09-06T15:52:02;23.90;82.60
12977;DHT22;6553;48.412;9.514;2022-09-06T15:54:30;23.90;83.00
12977;DHT22;6553;48.412;9.514;2022-09-06T15:57:15;23.90;83.20
12977;DHT22;6553;48.412;9.514;2022-09-06T15:59:41;23.90;83.20
12977;DHT22;6553;48.412;9.514;2022-09-06T16:02:07;23.90;83.50
12977;DHT22;6553;48.412;9.514;2022-09-06T16:04:34;23.90;84.60
12977;DHT22;6553;48.412;9.514;2022-09-06T16:07:00;23.90;84.00
12977;DHT22;6553;48.412;9.514;2022-09-06T16:09:25;23.90;84.20
12977;DHT22;6553;48.412;9.514;2022-09-06T16:11:51;23.90;84.00
12977;DHT22;6553;48.412;9.514;2022-09-06T16:14:17;24.00;84.50
12977;DHT22;6553;48.412;9.514;2022-09-06T16:16:44;24.00;84.40
12977;DHT22;6553;48.412;9.514;2022-09-06T16:19:10;24.00;84.70
12977;DHT22;6553;48.412;9.514;2022-09-06T16:21:39;24.00;84.90
12977;DHT22;6553;48.412;9.514;2022-09-06T16:24:08;24.00;85.40
12977;DHT22;6553;48.412;9.514;2022-09-06T16:26:38;24.00;85.60
12977;DHT22;6553;48.412;9.514;2022-09-06T16:29:12;23.90;85.20
12977;DHT22;6553;48.412;9.514;2022-09-06T16:31:40;23.90;85.30
12977;DHT22;6553;48.412;9.514;2022-09-06T16:34:08;23.90;86.00
12977;DHT22;6553;48.412;9.514;2022-09-06T16:36:35;24.00;86.10
12977;DHT22;6553;48.412;9.514;2022-09-06T16:39:01;23.90;85.80
12977;DHT22;6553;48.412;9.514;2022-09-06T16:44:06;24.00;86.40
12977;DHT22;6553;48.412;9.514;2022-09-06T16:46:33;24.00;86.60
12977;DHT22;6553;48.412;9.514;2022-09-06T16:49:00;23.90;86.80
12977;DHT22;6553;48.412;9.514;2022-09-06T16:51:28;23.90;86.90
12977;DHT22;6553;48.412;9.514;2022-09-06T16:53:57;23.90;86.90
12977;DHT22;6553;48.412;9.514;2022-09-06T16:56:26;23.90;87.00
12977;DHT22;6553;48.412;9.514;2022-09-06T16:58:58;23.90;86.80
12977;DHT22;6553;48.412;9.514;2022-09-06T17:01:26;23.90;87.20
12977;DHT22;6553;48.412;9.514;2022-09-06T17:03:54;23.90;87.30
12977;DHT22;6553;48.412;9.514;2022-09-06T17:06:21;23.80;87.10
12977;DHT22;6553;48.412;9.514;2022-09-06T17:08:48;23.90;87.20
12977;DHT22;6553;48.412;9.514;2022-09-06T17:11:17;23.80;87.10
12977;DHT22;6553;48.412;9.514;2022-09-06T17:13:47;23.80;87.10
12977;DHT22;6553;48.412;9.514;2022-09-06T17:16:16;23.80;87.30
12977;DHT22;6553;48.412;9.514;2022-09-06T17:19:02;23.80;87.30
12977;DHT22;6553;48.412;9.514;2022-09-06T17:21:29;23.80;88.10
12977;DHT22;6553;48.412;9.514;2022-09-06T17:23:55;23.80;88.70
12977;DHT22;6553;48.412;9.514;2022-09-06T17:26:28;23.80;88.70
12977;DHT22;6553;48.412;9.514;2022-09-06T17:28:54;23.80;87.90
12977;DHT22;6553;48.412;9.514;2022-09-06T17:31:21;23.80;88.70
12977;DHT22;6553;48.412;9.514;2022-09-06T17:33:49;23.80;88.20
12977;DHT22;6553;48.412;9.514;2022-09-06T17:36:17;23.80;88.10
12977;DHT22;6553;48.412;9.514;2022-09-06T17:38:48;23.80;88.30
12977;DHT22;6553;48.412;9.514;2022-09-06T17:41:26;23.80;88.30
12977;DHT22;6553;48.412;9.514;2022-09-06T17:43:55;23.80;88.70
12977;DHT22;6553;48.412;9.514;2022-09-06T17:46:23;23.80;88.90